sensor_id;sensor_type;location;lat;lon;timestamp;pressure;altitude;pressure_sealevel;temperature
11849;BMP180;5983;49.966;8.052;2023-04-01T00:01:12;98793.00;;;11.10
11849;BMP180;5983;49.966;8.052;2023-04-01T00:03:40;98792.00;;;11.00
11849;BMP180;5983;49.966;8.052;2023-04-01T00:06:08;98780.00;;;11.10
11849;BMP180;5983;49.966;8.052;2023-04-01T00:08:35;98792.00;;;11.00
11849;BMP180;5983;49.966;8.052;2023-04-01T00:11:02;98784.00;;;11.00
11849;BMP180;5983;49.966;8.052;2023-04-01T00:13:31;98796.00;;;11.00
11849;BMP180;5983;49.966;8.052;2023-04-01T00:15:58;98798.00;;;11.00
11849;BMP180;5983;49.966;8.052;2023-04-01T00:18:25;98784.00;;;11.00
11849;BMP180;5983;49.966;8.052;2023-04-01T00:20:53;98783.00;;;11.00
11849;BMP180;5983;49.966;8.052;2023-04-01T00:23:20;98795.00;;;11.00
11849;BMP180;5983;49.966;8.052;2023-04-01T00:25:47;98791.00;;;11.00
11849;BMP180;5983;49.966;8.052;2023-04-01T00:28:15;98793.00;;;11.00
11849;BMP180;5983;49.966;8.052;2023-04-01T00:30:45;98795.00;;;11.00
11849;BMP180;5983;49.966;8.052;2023-04-01T00:33:13;98774.00;;;10.90
11849;BMP180;5983;49.966;8.052;2023-04-01T00:35:40;98777.00;;;10.90
11849;BMP180;5983;49.966;8.052;2023-04-01T00:38:07;98772.00;;;11.00
11849;BMP180;5983;49.966;8.052;2023-04-01T00:40:40;98778.00;;;11.00
11849;BMP180;5983;49.966;8.052;2023-04-01T00:43:13;98785.00;;;11.00
11849;BMP180;5983;49.966;8.052;2023-04-01T00:45:42;98775.00;;;11.00
11849;BMP180;5983;49.966;8.052;2023-04-01T00:48:15;98786.00;;;10.90
11849;BMP180;5983;49.966;8.052;2023-04-01T00:50:49;98778.00;;;10.90
11849;BMP180;5983;49.966;8.052;2023-04-01T00:53:19;98783.00;;;10.90
11849;BMP180;5983;49.966;8.052;2023-04-01T00:55:53;98779.00;;;10.80
11849;BMP180;5983;49.966;8.052;2023-04-01T00:58:24;98792.00;;;10.80
11849;BMP180;5983;49.966;8.052;2023-04-01T01:00:52;98783.00;;;10.80
11849;BMP180;5983;49.966;8.052;2023-04-01T01:03:20;98777.00;;;10.80
11849;BMP180;5983;49.966;8.052;2023-04-01T01:06:15;98771.00;;;10.80
11849;BMP180;5983;49.966;8.052;2023-04-01T01:09:14;98761.00;;;10.80
11849;BMP180;5983;49.966;8.052;2023-04-01T01:11:51;98775.00;;;10.80
11849;BMP180;5983;49.966;8.052;2023-04-01T01:14:38;98770.00;;;10.80
11849;BMP180;5983;49.966;8.052;2023-04-01T01:17:19;98780.00;;;10.80
11849;BMP180;5983;49.966;8.052;2023-04-01T01:20:19;98770.00;;;10.80
11849;BMP180;5983;49.966;8.052;2023-04-01T01:23:54;98772.00;;;10.80
11849;BMP180;5983;49.966;8.052;2023-04-01T01:26:42;98767.00;;;10.90
11849;BMP180;5983;49.966;8.052;2023-04-01T01:30:01;98782.00;;;10.90
11849;BMP180;5983;49.966;8.052;2023-04-01T01:35:48;98768.00;;;10.90
11849;BMP180;5983;49.966;8.052;2023-04-01T01:38:19;98772.00;;;10.90
11849;BMP180;5983;49.966;8.052;2023-04-01T01:40:50;98762.00;;;10.90
11849;BMP180;5983;49.966;8.052;2023-04-01T01:43:22;98764.00;;;10.90
11849;BMP180;5983;49.966;8.052;2023-04-01T01:45:55;98762.00;;;10.90
11849;BMP180;5983;49.966;8.052;2023-04-01T01:48:24;98758.00;;;10.90
11849;BMP180;5983;49.966;8.052;2023-04-01T01:50:54;98760.00;;;10.90
11849;BMP180;5983;49.966;8.052;2023-04-01T01:53:21;98757.00;;;10.90
11849;BMP180;5983;49.966;8.052;2023-04-01T01:55:48;98761.00;;;10.80
11849;BMP180;5983;49.966;8.052;2023-04-01T01:58:22;98759.00;;;10.80
11849;BMP180;5983;49.966;8.052;2023-04-01T02:00:55;98756.00;;;10.80
11849;BMP180;5983;49.966;8.052;2023-04-01T02:03:27;98756.00;;;10.80
11849;BMP180;5983;49.966;8.052;2023-04-01T02:05:59;98757.00;;;10.80
11849;BMP180;5983;49.966;8.052;2023-04-01T02:08:32;98760.00;;;10.70
11849;BMP180;5983;49.966;8.052;2023-04-01T02:11:08;98766.00;;;10.70
11849;BMP180;5983;49.966;8.052;2023-04-01T02:13:42;98772.00;;;10.60
11849;BMP180;5983;49.966;8.052;2023-04-01T02:16:15;98761.00;;;10.70
11849;BMP180;5983;49.966;8.052;2023-04-01T02:18:45;98773.00;;;10.70
11849;BMP180;5983;49.966;8.052;2023-04-01T02:21:17;98763.00;;;10.70
11849;BMP180;5983;49.966;8.052;2023-04-01T02:23:47;98773.00;;;10.70
11849;BMP180;5983;49.966;8.052;2023-04-01T02:26:15;98763.00;;;10.60
11849;BMP180;5983;49.966;8.052;2023-04-01T02:28:45;98760.00;;;10.70
11849;BMP180;5983;49.966;8.052;2023-04-01T02:31:14;98761.00;;;10.60
11849;BMP180;5983;49.966;8.052;2023-04-01T02:33:41;98765.00;;;10.60
11849;BMP180;5983;49.966;8.052;2023-04-01T02:36:12;98760.00;;;10.60
11849;BMP180;5983;49.966;8.052;2023-04-01T02:38:44;98770.00;;;10.60
11849;BMP180;5983;49.966;8.052;2023-04-01T02:41:12;98770.00;;;10.60
11849;BMP180;5983;49.966;8.052;2023-04-01T02:43:39;98765.00;;;10.60
11849;BMP180;5983;49.966;8.052;2023-04-01T02:46:06;98761.00;;;10.60
11849;BMP180;5983;49.966;8.052;2023-04-01T02:48:33;98749.00;;;10.60
11849;BMP180;5983;49.966;8.052;2023-04-01T02:51:01;98749.00;;;10.60
11849;BMP180;5983;49.966;8.052;2023-04-01T02:53:27;98756.00;;;10.50
11849;BMP180;5983;49.966;8.052;2023-04-01T02:55:56;98750.00;;;10.50
11849;BMP180;5983;49.966;8.052;2023-04-01T02:58:23;98748.00;;;10.50
11849;BMP180;5983;49.966;8.052;2023-04-01T03:00:50;98746.00;;;10.50
11849;BMP180;5983;49.966;8.052;2023-04-01T03:03:17;98756.00;;;10.50
11849;BMP180;5983;49.966;8.052;2023-04-01T03:05:44;98755.00;;;10.50
11849;BMP180;5983;49.966;8.052;2023-04-01T03:08:11;98765.00;;;10.50
11849;BMP180;5983;49.966;8.052;2023-04-01T03:10:38;98758.00;;;10.50
11849;BMP180;5983;49.966;8.052;2023-04-01T03:13:06;98749.00;;;10.50
11849;BMP180;5983;49.966;8.052;2023-04-01T03:15:33;98753.00;;;10.50
11849;BMP180;5983;49.966;8.052;2023-04-01T03:18:00;98758.00;;;10.50
11849;BMP180;5983;49.966;8.052;2023-04-01T03:20:28;98758.00;;;10.50
11849;BMP180;5983;49.966;8.052;2023-04-01T03:22:55;98770.00;;;10.50
11849;BMP180;5983;49.966;8.052;2023-04-01T03:25:22;98758.00;;;10.50
11849;BMP180;5983;49.966;8.052;2023-04-01T03:27:49;98768.00;;;10.50
11849;BMP180;5983;49.966;8.052;2023-04-01T03:30:18;98755.00;;;10.50
11849;BMP180;5983;49.966;8.052;2023-04-01T03:32:45;98747.00;;;10.50
11849;BMP180;5983;49.966;8.052;2023-04-01T03:35:12;98763.00;;;10.50
11849;BMP180;5983;49.966;8.052;2023-04-01T03:37:39;98759.00;;;10.50
11849;BMP180;5983;49.966;8.052;2023-04-01T03:40:07;98760.00;;;10.50
11849;BMP180;5983;49.966;8.052;2023-04-01T03:42:34;98763.00;;;10.50
11849;BMP180;5983;49.966;8.052;2023-04-01T03:45:02;98756.00;;;10.50
11849;BMP180;5983;49.966;8.052;2023-04-01T03:47:30;98760.00;;;10.50
11849;BMP180;5983;49.966;8.052;2023-04-01T03:49:58;98754.00;;;10.50
11849;BMP180;5983;49.966;8.052;2023-04-01T03:52:25;98769.00;;;10.50
11849;BMP180;5983;49.966;8.052;2023-04-01T03:54:52;98768.00;;;10.50
11849;BMP180;5983;49.966;8.052;2023-04-01T03:57:19;98777.00;;;10.50
11849;BMP180;5983;49.966;8.052;2023-04-01T03:59:46;98760.00;;;10.60
11849;BMP180;5983;49.966;8.052;2023-04-01T04:02:13;98763.00;;;10.50
11849;BMP180;5983;49.966;8.052;2023-04-01T04:04:41;98758.00;;;10.50
11849;BMP180;5983;49.966;8.052;2023-04-01T04:07:09;98767.00;;;10.50
11849;BMP180;5983;49.966;8.052;2023-04-01T04:09:35;98760.00;;;10.50
11849;BMP180;5983;49.966;8.052;2023-04-01T04:12:03;98772.00;;;10.50
11849;BMP180;5983;49.966;8.052;2023-04-01T04:14:31;98765.00;;;10.50
11849;BMP180;5983;49.966;8.052;2023-04-01T04:16:58;98762.00;;;10.50
11849;BMP180;5983;49.966;8.052;2023-04-01T04:19:24;98774.00;;;10.50
11849;BMP180;5983;49.966;8.052;2023-04-01T04:21:53;98762.00;;;10.40
11849;BMP180;5983;49.966;8.052;2023-04-01T04:24:19;98774.00;;;10.40
11849;BMP180;5983;49.966;8.052;2023-04-01T04:26:46;98760.00;;;10.40
11849;BMP180;5983;49.966;8.052;2023-04-01T04:29:13;98767.00;;;10.40
11849;BMP180;5983;49.966;8.052;2023-04-01T04:31:40;98759.00;;;10.40
11849;BMP180;5983;49.966;8.052;2023-04-01T04:34:07;98760.00;;;10.40
11849;BMP180;5983;49.966;8.052;2023-04-01T04:36:34;98765.00;;;10.40
11849;BMP180;5983;49.966;8.052;2023-04-01T04:39:02;98767.00;;;10.40
11849;BMP180;5983;49.966;8.052;2023-04-01T04:41:29;98769.00;;;10.30
11849;BMP180;5983;49.966;8.052;2023-04-01T04:43:57;98764.00;;;10.30
11849;BMP180;5983;49.966;8.052;2023-04-01T04:46:25;98769.00;;;10.30
11849;BMP180;5983;49.966;8.052;2023-04-01T04:48:52;98771.00;;;10.40
11849;BMP180;5983;49.966;8.052;2023-04-01T04:51:20;98776.00;;;10.30
11849;BMP180;5983;49.966;8.052;2023-04-01T04:53:48;98772.00;;;10.30
11849;BMP180;5983;49.966;8.052;2023-04-01T04:56:20;98773.00;;;10.30
11849;BMP180;5983;49.966;8.052;2023-04-01T04:58:47;98777.00;;;10.30
11849;BMP180;5983;49.966;8.052;2023-04-01T05:01:16;98780.00;;;10.40
11849;BMP180;5983;49.966;8.052;2023-04-01T05:03:44;98774.00;;;10.40
11849;BMP180;5983;49.966;8.052;2023-04-01T05:06:14;98777.00;;;10.40
11849;BMP180;5983;49.966;8.052;2023-04-01T05:08:42;98776.00;;;10.40
11849;BMP180;5983;49.966;8.052;2023-04-01T05:11:13;98782.00;;;10.40
11849;BMP180;5983;49.966;8.052;2023-04-01T05:13:43;98787.00;;;10.40
11849;BMP180;5983;49.966;8.052;2023-04-01T05:16:12;98780.00;;;10.40
11849;BMP180;5983;49.966;8.052;2023-04-01T05:18:40;98778.00;;;10.40
11849;BMP180;5983;49.966;8.052;2023-04-01T05:21:09;98783.00;;;10.40
11849;BMP180;5983;49.966;8.052;2023-04-01T05:23:37;98770.00;;;10.40
11849;BMP180;5983;49.966;8.052;2023-04-01T05:26:05;98774.00;;;10.40
11849;BMP180;5983;49.966;8.052;2023-04-01T05:28:32;98767.00;;;10.40
11849;BMP180;5983;49.966;8.052;2023-04-01T05:31:02;98765.00;;;10.40
11849;BMP180;5983;49.966;8.052;2023-04-01T05:33:31;98775.00;;;10.40
11849;BMP180;5983;49.966;8.052;2023-04-01T05:36:06;98774.00;;;10.40
11849;BMP180;5983;49.966;8.052;2023-04-01T05:38:33;98772.00;;;10.40
11849;BMP180;5983;49.966;8.052;2023-04-01T05:41:01;98762.00;;;10.40
11849;BMP180;5983;49.966;8.052;2023-04-01T05:43:28;98766.00;;;10.40
11849;BMP180;5983;49.966;8.052;2023-04-01T05:45:55;98764.00;;;10.40
11849;BMP180;5983;49.966;8.052;2023-04-01T05:48:23;98754.00;;;10.40
11849;BMP180;5983;49.966;8.052;2023-04-01T05:50:50;98760.00;;;10.40
11849;BMP180;5983;49.966;8.052;2023-04-01T05:53:17;98763.00;;;10.40
11849;BMP180;5983;49.966;8.052;2023-04-01T05:55:44;98755.00;;;10.50
11849;BMP180;5983;49.966;8.052;2023-04-01T05:58:11;98759.00;;;10.50
11849;BMP180;5983;49.966;8.052;2023-04-01T06:00:38;98754.00;;;10.50
11849;BMP180;5983;49.966;8.052;2023-04-01T06:03:05;98756.00;;;10.50
11849;BMP180;5983;49.966;8.052;2023-04-01T06:05:40;98759.00;;;10.50
11849;BMP180;5983;49.966;8.052;2023-04-01T06:08:12;98756.00;;;10.50
11849;BMP180;5983;49.966;8.052;2023-04-01T06:10:58;98751.00;;;10.50
11849;BMP180;5983;49.966;8.052;2023-04-01T06:13:43;98767.00;;;10.50
11849;BMP180;5983;49.966;8.052;2023-04-01T06:16:25;98755.00;;;10.50
11849;BMP180;5983;49.966;8.052;2023-04-01T06:19:19;98763.00;;;10.60
11849;BMP180;5983;49.966;8.052;2023-04-01T06:22:16;98756.00;;;10.60
11849;BMP180;5983;49.966;8.052;2023-04-01T06:25:31;98765.00;;;10.60
11849;BMP180;5983;49.966;8.052;2023-04-01T06:28:30;98771.00;;;10.60
11849;BMP180;5983;49.966;8.052;2023-04-01T06:31:05;98775.00;;;10.60
11849;BMP180;5983;49.966;8.052;2023-04-01T06:33:52;98773.00;;;10.60
11849;BMP180;5983;49.966;8.052;2023-04-01T06:36:42;98776.00;;;10.60
11849;BMP180;5983;49.966;8.052;2023-04-01T06:39:32;98777.00;;;10.60
11849;BMP180;5983;49.966;8.052;2023-04-01T06:42:32;98771.00;;;10.60
11849;BMP180;5983;49.966;8.052;2023-04-01T06:45:16;98770.00;;;10.70
11849;BMP180;5983;49.966;8.052;2023-04-01T06:48:03;98771.00;;;10.70
11849;BMP180;5983;49.966;8.052;2023-04-01T06:50:44;98771.00;;;10.80
11849;BMP180;5983;49.966;8.052;2023-04-01T06:53:21;98770.00;;;10.80
11849;BMP180;5983;49.966;8.052;2023-04-01T06:55:57;98774.00;;;10.90
11849;BMP180;5983;49.966;8.052;2023-04-01T06:58:34;98775.00;;;11.00
11849;BMP180;5983;49.966;8.052;2023-04-01T07:01:09;98769.00;;;11.00
11849;BMP180;5983;49.966;8.052;2023-04-01T07:03:43;98775.00;;;11.00
11849;BMP180;5983;49.966;8.052;2023-04-01T07:06:20;98769.00;;;11.00
11849;BMP180;5983;49.966;8.052;2023-04-01T07:08:53;98776.00;;;11.10
11849;BMP180;5983;49.966;8.052;2023-04-01T07:11:29;98784.00;;;11.10
11849;BMP180;5983;49.966;8.052;2023-04-01T07:14:01;98767.00;;;11.10
11849;BMP180;5983;49.966;8.052;2023-04-01T07:16:33;98767.00;;;11.10
11849;BMP180;5983;49.966;8.052;2023-04-01T07:19:08;98776.00;;;11.10
11849;BMP180;5983;49.966;8.052;2023-04-01T07:21:42;98782.00;;;11.20
11849;BMP180;5983;49.966;8.052;2023-04-01T07:24:21;98780.00;;;11.20
11849;BMP180;5983;49.966;8.052;2023-04-01T07:26:55;98786.00;;;11.30
11849;BMP180;5983;49.966;8.052;2023-04-01T07:29:22;98777.00;;;11.40
11849;BMP180;5983;49.966;8.052;2023-04-01T07:32:09;98772.00;;;11.40
11849;BMP180;5983;49.966;8.052;2023-04-01T07:34:54;98778.00;;;11.40
11849;BMP180;5983;49.966;8.052;2023-04-01T07:37:31;98786.00;;;11.50
11849;BMP180;5983;49.966;8.052;2023-04-01T07:40:18;98782.00;;;11.50
11849;BMP180;5983;49.966;8.052;2023-04-01T07:43:10;98778.00;;;11.60
11849;BMP180;5983;49.966;8.052;2023-04-01T07:45:48;98787.00;;;11.50
11849;BMP180;5983;49.966;8.052;2023-04-01T07:48:27;98785.00;;;11.50
11849;BMP180;5983;49.966;8.052;2023-04-01T07:51:03;98795.00;;;11.50
11849;BMP180;5983;49.966;8.052;2023-04-01T07:53:38;98797.00;;;11.50
11849;BMP180;5983;49.966;8.052;2023-04-01T07:56:16;98796.00;;;11.50
11849;BMP180;5983;49.966;8.052;2023-04-01T07:59:00;98815.00;;;11.60
11849;BMP180;5983;49.966;8.052;2023-04-01T08:01:36;98796.00;;;11.50
11849;BMP180;5983;49.966;8.052;2023-04-01T08:04:28;98798.00;;;11.50
11849;BMP180;5983;49.966;8.052;2023-04-01T08:07:08;98802.00;;;11.50
11849;BMP180;5983;49.966;8.052;2023-04-01T08:09:45;98800.00;;;11.60
11849;BMP180;5983;49.966;8.052;2023-04-01T08:12:32;98802.00;;;11.60
11849;BMP180;5983;49.966;8.052;2023-04-01T08:15:21;98814.00;;;11.60
11849;BMP180;5983;49.966;8.052;2023-04-01T08:18:03;98817.00;;;11.60
11849;BMP180;5983;49.966;8.052;2023-04-01T08:20:37;98811.00;;;11.60
11849;BMP180;5983;49.966;8.052;2023-04-01T08:23:14;98820.00;;;11.70
11849;BMP180;5983;49.966;8.052;2023-04-01T08:25:49;98822.00;;;11.70
11849;BMP180;5983;49.966;8.052;2023-04-01T08:28:24;98818.00;;;11.60
11849;BMP180;5983;49.966;8.052;2023-04-01T08:31:00;98823.00;;;11.70
11849;BMP180;5983;49.966;8.052;2023-04-01T08:33:29;98826.00;;;11.70
11849;BMP180;5983;49.966;8.052;2023-04-01T08:36:03;98820.00;;;11.70
11849;BMP180;5983;49.966;8.052;2023-04-01T08:38:38;98826.00;;;11.70
11849;BMP180;5983;49.966;8.052;2023-04-01T08:44:53;98830.00;;;11.80
11849;BMP180;5983;49.966;8.052;2023-04-01T08:51:18;98830.00;;;11.80
11849;BMP180;5983;49.966;8.052;2023-04-01T08:54:12;98833.00;;;11.70
11849;BMP180;5983;49.966;8.052;2023-04-01T08:56:55;98835.00;;;11.70
11849;BMP180;5983;49.966;8.052;2023-04-01T08:59:57;98831.00;;;11.70
11849;BMP180;5983;49.966;8.052;2023-04-01T09:06:25;98836.00;;;11.60
11849;BMP180;5983;49.966;8.052;2023-04-01T09:09:17;98839.00;;;11.60
11849;BMP180;5983;49.966;8.052;2023-04-01T09:15:50;98842.00;;;11.60
11849;BMP180;5983;49.966;8.052;2023-04-01T09:22:18;98840.00;;;11.70
11849;BMP180;5983;49.966;8.052;2023-04-01T09:25:12;98854.00;;;11.70
11849;BMP180;5983;49.966;8.052;2023-04-01T09:27:47;98856.00;;;11.80
11849;BMP180;5983;49.966;8.052;2023-04-01T09:37:15;98863.00;;;11.90
11849;BMP180;5983;49.966;8.052;2023-04-01T09:39:57;98862.00;;;11.90
11849;BMP180;5983;49.966;8.052;2023-04-01T09:42:43;98867.00;;;12.00
11849;BMP180;5983;49.966;8.052;2023-04-01T09:45:31;98855.00;;;12.00
11849;BMP180;5983;49.966;8.052;2023-04-01T09:48:14;98850.00;;;12.10
11849;BMP180;5983;49.966;8.052;2023-04-01T09:50:54;98861.00;;;12.20
11849;BMP180;5983;49.966;8.052;2023-04-01T09:53:49;98864.00;;;12.20
11849;BMP180;5983;49.966;8.052;2023-04-01T10:00:32;98862.00;;;12.20
11849;BMP180;5983;49.966;8.052;2023-04-01T10:07:14;98877.00;;;12.20
11849;BMP180;5983;49.966;8.052;2023-04-01T10:10:28;98882.00;;;12.10
11849;BMP180;5983;49.966;8.052;2023-04-01T10:16:48;98876.00;;;12.10
11849;BMP180;5983;49.966;8.052;2023-04-01T10:20:12;98876.00;;;12.10
11849;BMP180;5983;49.966;8.052;2023-04-01T10:26:34;98879.00;;;12.30
11849;BMP180;5983;49.966;8.052;2023-04-01T10:29:48;98885.00;;;12.40
11849;BMP180;5983;49.966;8.052;2023-04-01T10:33:08;98889.00;;;12.40
11849;BMP180;5983;49.966;8.052;2023-04-01T10:43:25;98878.00;;;12.50
11849;BMP180;5983;49.966;8.052;2023-04-01T10:49:55;98877.00;;;12.60
11849;BMP180;5983;49.966;8.052;2023-04-01T10:53:15;98873.00;;;12.70
11849;BMP180;5983;49.966;8.052;2023-04-01T11:06:45;98880.00;;;12.90
11849;BMP180;5983;49.966;8.052;2023-04-01T11:13:28;98897.00;;;12.90
11849;BMP180;5983;49.966;8.052;2023-04-01T11:20:04;98874.00;;;12.90
11849;BMP180;5983;49.966;8.052;2023-04-01T11:23:10;98880.00;;;12.90
11849;BMP180;5983;49.966;8.052;2023-04-01T11:26:14;98880.00;;;13.00
11849;BMP180;5983;49.966;8.052;2023-04-01T11:29:23;98877.00;;;13.00
11849;BMP180;5983;49.966;8.052;2023-04-01T11:32:07;98879.00;;;12.90
11849;BMP180;5983;49.966;8.052;2023-04-01T11:35:09;98878.00;;;12.90
11849;BMP180;5983;49.966;8.052;2023-04-01T11:37:54;98880.00;;;12.90
11849;BMP180;5983;49.966;8.052;2023-04-01T11:40:37;98887.00;;;13.00
11849;BMP180;5983;49.966;8.052;2023-04-01T11:43:16;98887.00;;;12.90
11849;BMP180;5983;49.966;8.052;2023-04-01T11:45:53;98895.00;;;12.80
11849;BMP180;5983;49.966;8.052;2023-04-01T11:48:44;98891.00;;;12.70
11849;BMP180;5983;49.966;8.052;2023-04-01T11:51:51;98903.00;;;12.70
11849;BMP180;5983;49.966;8.052;2023-04-01T11:54:51;98911.00;;;12.70
11849;BMP180;5983;49.966;8.052;2023-04-01T11:57:46;98900.00;;;12.60
11849;BMP180;5983;49.966;8.052;2023-04-01T12:00:57;98904.00;;;12.60
11849;BMP180;5983;49.966;8.052;2023-04-01T12:03:59;98909.00;;;12.60
11849;BMP180;5983;49.966;8.052;2023-04-01T12:06:39;98912.00;;;12.60
11849;BMP180;5983;49.966;8.052;2023-04-01T12:09:18;98911.00;;;12.60
11849;BMP180;5983;49.966;8.052;2023-04-01T12:12:04;98909.00;;;12.60
11849;BMP180;5983;49.966;8.052;2023-04-01T12:14:45;98907.00;;;12.70
11849;BMP180;5983;49.966;8.052;2023-04-01T12:17:29;98910.00;;;12.60
11849;BMP180;5983;49.966;8.052;2023-04-01T12:20:24;98913.00;;;12.60
11849;BMP180;5983;49.966;8.052;2023-04-01T12:23:08;98920.00;;;12.50
11849;BMP180;5983;49.966;8.052;2023-04-01T12:26:09;98930.00;;;12.50
11849;BMP180;5983;49.966;8.052;2023-04-01T12:28:54;98926.00;;;12.60
11849;BMP180;5983;49.966;8.052;2023-04-01T12:31:38;98935.00;;;12.60
11849;BMP180;5983;49.966;8.052;2023-04-01T12:34:53;98940.00;;;12.60
11849;BMP180;5983;49.966;8.052;2023-04-01T12:37:35;98932.00;;;12.60
11849;BMP180;5983;49.966;8.052;2023-04-01T12:43:54;98932.00;;;12.80
11849;BMP180;5983;49.966;8.052;2023-04-01T12:46:32;98927.00;;;13.00
11849;BMP180;5983;49.966;8.052;2023-04-01T12:49:26;98934.00;;;13.10
11849;BMP180;5983;49.966;8.052;2023-04-01T12:52:13;98934.00;;;13.60
11849;BMP180;5983;49.966;8.052;2023-04-01T12:55:35;98938.00;;;13.90
11849;BMP180;5983;49.966;8.052;2023-04-01T13:02:11;98947.00;;;14.30
11849;BMP180;5983;49.966;8.052;2023-04-01T13:05:15;98944.00;;;14.40
11849;BMP180;5983;49.966;8.052;2023-04-01T13:08:10;98953.00;;;14.40
11849;BMP180;5983;49.966;8.052;2023-04-01T13:11:02;98941.00;;;14.40
11849;BMP180;5983;49.966;8.052;2023-04-01T13:14:24;98962.00;;;14.50
11849;BMP180;5983;49.966;8.052;2023-04-01T13:17:04;98948.00;;;14.40
11849;BMP180;5983;49.966;8.052;2023-04-01T13:19:43;98956.00;;;14.40
11849;BMP180;5983;49.966;8.052;2023-04-01T13:22:20;98965.00;;;14.60
11849;BMP180;5983;49.966;8.052;2023-04-01T13:24:58;98960.00;;;14.70
11849;BMP180;5983;49.966;8.052;2023-04-01T13:27:36;98964.00;;;14.70
11849;BMP180;5983;49.966;8.052;2023-04-01T13:30:24;98971.00;;;14.80
11849;BMP180;5983;49.966;8.052;2023-04-01T13:33:03;98981.00;;;14.70
11849;BMP180;5983;49.966;8.052;2023-04-01T13:35:43;98966.00;;;14.60
11849;BMP180;5983;49.966;8.052;2023-04-01T13:38:45;98980.00;;;14.40
11849;BMP180;5983;49.966;8.052;2023-04-01T13:41:29;98968.00;;;14.30
11849;BMP180;5983;49.966;8.052;2023-04-01T13:44:09;98973.00;;;14.20
11849;BMP180;5983;49.966;8.052;2023-04-01T13:47:24;98970.00;;;14.10
11849;BMP180;5983;49.966;8.052;2023-04-01T13:50:38;98973.00;;;14.00
11849;BMP180;5983;49.966;8.052;2023-04-01T13:56:47;98982.00;;;14.00
11849;BMP180;5983;49.966;8.052;2023-04-01T14:06:43;98979.00;;;14.30
11849;BMP180;5983;49.966;8.052;2023-04-01T14:09:52;98990.00;;;14.40
11849;BMP180;5983;49.966;8.052;2023-04-01T14:12:32;98996.00;;;14.40
11849;BMP180;5983;49.966;8.052;2023-04-01T14:15:25;98988.00;;;14.40
11849;BMP180;5983;49.966;8.052;2023-04-01T14:18:27;99010.00;;;14.50
11849;BMP180;5983;49.966;8.052;2023-04-01T14:21:19;99000.00;;;14.50
11849;BMP180;5983;49.966;8.052;2023-04-01T14:24:36;99011.00;;;14.50
11849;BMP180;5983;49.966;8.052;2023-04-01T14:27:44;99012.00;;;14.40
11849;BMP180;5983;49.966;8.052;2023-04-01T14:30:51;99009.00;;;14.30
11849;BMP180;5983;49.966;8.052;2023-04-01T14:33:39;99004.00;;;14.20
11849;BMP180;5983;49.966;8.052;2023-04-01T14:36:59;99012.00;;;13.90
11849;BMP180;5983;49.966;8.052;2023-04-01T14:39:55;99020.00;;;13.80
11849;BMP180;5983;49.966;8.052;2023-04-01T14:42:48;99014.00;;;13.70
11849;BMP180;5983;49.966;8.052;2023-04-01T14:45:45;99021.00;;;13.80
11849;BMP180;5983;49.966;8.052;2023-04-01T14:48:25;99020.00;;;13.80
11849;BMP180;5983;49.966;8.052;2023-04-01T14:51:03;99023.00;;;13.80
11849;BMP180;5983;49.966;8.052;2023-04-01T14:53:39;99021.00;;;13.80
11849;BMP180;5983;49.966;8.052;2023-04-01T14:56:12;99035.00;;;13.90
11849;BMP180;5983;49.966;8.052;2023-04-01T14:58:44;99033.00;;;13.90
11849;BMP180;5983;49.966;8.052;2023-04-01T15:01:29;99025.00;;;14.00
11849;BMP180;5983;49.966;8.052;2023-04-01T15:04:18;99033.00;;;14.20
11849;BMP180;5983;49.966;8.052;2023-04-01T15:07:25;99030.00;;;14.40
11849;BMP180;5983;49.966;8.052;2023-04-01T15:10:05;99021.00;;;14.60
11849;BMP180;5983;49.966;8.052;2023-04-01T15:12:47;99022.00;;;14.70
11849;BMP180;5983;49.966;8.052;2023-04-01T15:15:35;99030.00;;;14.80
11849;BMP180;5983;49.966;8.052;2023-04-01T15:18:11;99033.00;;;14.80
11849;BMP180;5983;49.966;8.052;2023-04-01T15:21:13;99033.00;;;14.70
11849;BMP180;5983;49.966;8.052;2023-04-01T15:23:58;99042.00;;;14.50
11849;BMP180;5983;49.966;8.052;2023-04-01T15:26:57;99048.00;;;14.30
11849;BMP180;5983;49.966;8.052;2023-04-01T15:30:13;99065.00;;;14.10
11849;BMP180;5983;49.966;8.052;2023-04-01T15:32:56;99061.00;;;13.80
11849;BMP180;5983;49.966;8.052;2023-04-01T15:35:39;99053.00;;;13.60
11849;BMP180;5983;49.966;8.052;2023-04-01T15:38:23;99056.00;;;13.50
11849;BMP180;5983;49.966;8.052;2023-04-01T15:41:02;99070.00;;;13.30
11849;BMP180;5983;49.966;8.052;2023-04-01T15:43:41;99071.00;;;13.20
11849;BMP180;5983;49.966;8.052;2023-04-01T15:46:30;99073.00;;;13.10
11849;BMP180;5983;49.966;8.052;2023-04-01T15:49:10;99077.00;;;13.10
11849;BMP180;5983;49.966;8.052;2023-04-01T15:52:05;99077.00;;;13.10
11849;BMP180;5983;49.966;8.052;2023-04-01T15:55:09;99093.00;;;13.10
11849;BMP180;5983;49.966;8.052;2023-04-01T15:57:54;99075.00;;;12.90
11849;BMP180;5983;49.966;8.052;2023-04-01T16:00:28;99087.00;;;12.90
11849;BMP180;5983;49.966;8.052;2023-04-01T16:03:17;99082.00;;;12.90
11849;BMP180;5983;49.966;8.052;2023-04-01T16:06:15;99093.00;;;12.80
11849;BMP180;5983;49.966;8.052;2023-04-01T16:09:06;99082.00;;;12.80
11849;BMP180;5983;49.966;8.052;2023-04-01T16:11:47;99102.00;;;12.80
11849;BMP180;5983;49.966;8.052;2023-04-01T16:14:33;99102.00;;;12.80
11849;BMP180;5983;49.966;8.052;2023-04-01T16:17:24;99107.00;;;12.80
11849;BMP180;5983;49.966;8.052;2023-04-01T16:20:02;99102.00;;;12.70
11849;BMP180;5983;49.966;8.052;2023-04-01T16:22:38;99100.00;;;12.70
11849;BMP180;5983;49.966;8.052;2023-04-01T16:25:24;99110.00;;;12.70
11849;BMP180;5983;49.966;8.052;2023-04-01T16:28:08;99118.00;;;12.60
11849;BMP180;5983;49.966;8.052;2023-04-01T16:30:44;99119.00;;;12.60
11849;BMP180;5983;49.966;8.052;2023-04-01T16:33:20;99122.00;;;12.50
11849;BMP180;5983;49.966;8.052;2023-04-01T16:35:58;99120.00;;;12.50
11849;BMP180;5983;49.966;8.052;2023-04-01T16:38:36;99126.00;;;12.50
11849;BMP180;5983;49.966;8.052;2023-04-01T16:41:15;99128.00;;;12.40
11849;BMP180;5983;49.966;8.052;2023-04-01T16:43:46;99132.00;;;12.40
11849;BMP180;5983;49.966;8.052;2023-04-01T16:46:30;99139.00;;;12.40
11849;BMP180;5983;49.966;8.052;2023-04-01T16:49:16;99132.00;;;12.30
11849;BMP180;5983;49.966;8.052;2023-04-01T16:51:52;99144.00;;;12.30
11849;BMP180;5983;49.966;8.052;2023-04-01T16:54:30;99141.00;;;12.40
11849;BMP180;5983;49.966;8.052;2023-04-01T16:57:16;99139.00;;;12.30
11849;BMP180;5983;49.966;8.052;2023-04-01T16:59:47;99146.00;;;12.30
11849;BMP180;5983;49.966;8.052;2023-04-01T17:02:26;99166.00;;;12.30
11849;BMP180;5983;49.966;8.052;2023-04-01T17:05:00;99156.00;;;12.20
11849;BMP180;5983;49.966;8.052;2023-04-01T17:07:40;99162.00;;;12.20